Latest Weather Observations for White Cliffs AWS

IDN60801

Issued at 5:35 pm EDT Friday 24 October 2014 (issued every 30 minutes, with the page automatically refreshed every 10 minutes)

About weather observations | Map of weather stations | Latest weather observations for NSW | Other Formats
Station Details ID: 046129 Name: WHITE CLIFFS AWS Lat: -30.85 Lon: 143.07 Height: 158.0 m
Data from the previous 72 hours. | See also: Recent months at White Cliffs AWS
Date/Time
EDT
Temp
°C
App
Temp
°C
Dew
Point
Rel
Hum
%
Delta-T
°C
Wind Press
QNH
hPa
Press
MSL
hPa
Rain
since 9 am
mm
Dir
 
Spd
km/h
Gust
km/h
Spd
kts
Gust
kts
24/05:30pm 36.1 29.9 2.2 12 17.6 SW 24 30 13 16 1013.2 1012.6 0.0
24/05:00pm 36.4 30.2 2.4 12 17.7 WSW 24 32 13 17 1013.3 1012.7 0.0
24/04:30pm 36.8 29.7 1.5 11 18.2 WSW 28 39 15 21 1013.3 1012.7 0.0
24/04:00pm 36.9 29.5 1.6 11 18.2 WSW 30 39 16 21 1013.3 1012.7 0.0
24/03:30pm 37.5 30.1 2.1 11 18.5 W 30 41 16 22 1013.4 1012.8 0.0
24/03:00pm 37.7 30.0 2.2 11 18.6 W 32 50 17 27 1013.7 1013.2 0.0
24/02:51pm 38.5 31.3 2.8 11 18.9 W 30 50 16 27 1013.6 1013.1 0.0
24/02:30pm 38.2 32.1 2.6 11 18.8 W 24 43 13 23 1014.0 1013.5 0.0
24/02:00pm 37.5 31.7 2.1 11 18.5 W 22 35 12 19 1014.3 1013.8 0.0
24/01:30pm 37.3 30.5 3.1 12 18.1 W 28 41 15 22 1014.7 1014.2 0.0
24/01:00pm 37.3 30.7 1.9 11 18.4 NW 26 35 14 19 1014.9 1014.4 0.0
24/12:30pm 35.9 30.6 3.2 13 17.2 WNW 20 28 11 15 1015.2 1014.7 0.0
24/12:00pm 35.1 30.1 4.6 15 16.3 W 20 28 11 15 1015.6 1015.1 0.0
24/11:30am 33.4 29.8 6.6 19 14.7 W 15 22 8 12 1016.0 1015.5 0.0
24/11:00am 31.4 28.0 5.8 20 13.7 W 13 19 7 10 1016.2 1015.7 0.0
24/10:30am 30.8 27.9 6.6 22 13.1 W 11 17 6 9 1016.1 1015.6 0.0
24/10:00am 29.3 26.7 6.0 23 12.4 W 9 13 5 7 1016.0 1015.5 0.0
24/09:30am 28.2 24.8 5.7 24 11.8 WSW 13 17 7 9 1016.0 1015.5 0.0
24/09:00am 27.2 23.7 5.5 25 11.3 WSW 13 19 7 10 1015.6 1015.1 0.0
24/08:30am 26.5 23.3 3.1 22 11.6 WSW 9 11 5 6 1015.4 1014.9 0.0
24/08:00am 25.3 21.9 2.1 22 11.2 NNW 9 11 5 6 1014.8 1014.3 0.0
24/07:30am 23.2 19.7 1.5 24 10.2 NNW 9 13 5 7 1014.5 1014.0 0.0
24/07:00am 21.8 18.0 1.5 26 9.4 NNW 11 13 6 7 1014.2 1013.7 0.0
24/06:30am 20.8 17.6 0.6 26 9.2 WNW 7 9 4 5 1013.9 1013.4 0.0
24/06:00am 22.6 18.7 1.0 24 10.0 WSW 11 11 6 6 1013.6 1013.1 0.0
24/05:30am 22.5 18.6 0.9 24 10.0 WSW 11 13 6 7 1013.5 1013.0 0.0
24/05:00am 22.9 18.9 0.7 23 10.3 SW 11 13 6 7 1013.5 1013.0 0.0
24/04:30am 23.1 18.4 0.9 23 10.3 WSW 15 15 8 8 1013.4 1012.8 0.0
24/04:00am 22.8 18.1 0.6 23 10.2 WSW 15 17 8 9 1013.5 1013.0 0.0
24/03:30am 23.3 19.0 1.0 23 10.4 W 13 13 7 7 1013.5 1013.0 0.0
24/03:00am 24.6 19.6 1.5 22 11.0 WSW 17 19 9 10 1013.6 1013.1 0.0
24/02:30am 24.7 19.8 2.2 23 10.8 W 17 19 9 10 1013.6 1013.1 0.0
24/02:00am 24.7 19.8 2.2 23 10.8 W 17 17 9 9 1013.8 1013.3 0.0
24/01:30am 25.2 21.2 2.6 23 11.0 W 13 15 7 8 1014.0 1013.5 0.0
24/01:00am 25.8 21.4 2.5 22 11.4 WNW 15 17 8 9 1014.0 1013.5 0.0
24/12:30am 26.4 22.2 1.7 20 11.9 W 13 17 7 9 1013.9 1013.4 0.0
24/12:00am 27.7 23.2 2.0 19 12.6 W 15 15 8 8 1014.0 1013.5 0.0
 
Date/Time
EDT
Temp
°C
App
Temp
°C
Dew
Point
Rel
Hum
%
Delta-T
°C
Wind Press
QNH
hPa
Press
MSL
hPa
Rain
since 9 am
mm
Dir
 
Spd
km/h
Gust
km/h
Spd
kts
Gust
kts
23/11:30pm 28.6 24.5 2.0 18 13.1 W 13 17 7 9 1013.9 1013.4 0.0
23/11:00pm 28.5 24.3 1.9 18 13.1 NW 13 17 7 9 1013.9 1013.4 0.0
23/10:30pm 30.7 26.6 2.0 16 14.4 N 13 17 7 9 1013.7 1013.2 0.0
23/10:00pm 31.1 26.2 2.3 16 14.5 N 17 19 9 10 1013.4 1012.8 0.0
23/09:30pm 30.1 25.9 1.5 16 14.1 N 13 15 7 8 1013.1 1012.5 0.0
23/09:00pm 31.3 27.1 1.6 15 14.8 N 13 15 7 8 1012.8 1012.2 0.0
23/08:30pm 32.0 28.1 1.2 14 15.3 NNW 11 15 6 8 1012.5 1011.9 0.0
23/08:00pm 33.1 28.8 1.0 13 16.0 NW 13 15 7 8 1012.2 1011.6 0.0
23/07:30pm 35.7 30.0 0.7 11 17.7 NW 20 24 11 13 1012.0 1011.4 0.0
23/07:00pm 37.0 30.5 0.4 10 18.6 NW 24 30 13 16 1011.9 1011.3 0.0
23/06:30pm 37.3 31.8 0.6 10 18.7 NW 19 24 10 13 1011.7 1011.1 0.0
23/06:00pm 38.1 32.5 1.2 10 19.1 NW 20 26 11 14 1011.8 1011.2 0.0
23/05:30pm 37.9 31.5 1.0 10 19.0 WNW 24 30 13 16 1011.8 1011.2 0.0
23/05:00pm 38.5 32.6 1.5 10 19.2 W 22 33 12 18 1011.8 1011.2 0.0
23/04:30pm 37.7 32.8 2.2 11 18.6 NW 17 24 9 13 1011.9 1011.3 0.0
23/04:00pm 37.7 31.5 2.2 11 18.6 W 24 32 13 17 1012.3 1011.7 0.0
23/03:30pm 37.4 32.0 4.4 13 17.8 NW 22 37 12 20 1012.8 1012.2 0.0
23/03:00pm 38.0 32.1 3.7 12 18.4 NW 24 35 13 19 1013.1 1012.5 0.0
23/02:30pm 37.6 32.6 4.5 13 17.9 NW 20 32 11 17 1013.7 1013.2 0.0
23/02:00pm 36.6 31.0 3.7 13 17.5 NW 22 33 12 18 1014.2 1013.7 0.0
23/01:30pm 36.4 30.3 4.6 14 17.1 WNW 26 35 14 19 1014.7 1014.2 0.0
23/01:00pm 35.8 30.3 6.1 16 16.3 NNW 24 33 13 18 1015.2 1014.7 0.0
23/12:30pm 35.2 29.5 6.5 17 15.8 WNW 26 37 14 20 1015.7 1015.2 0.0
23/12:00pm 34.7 29.2 6.1 17 15.6 NW 24 32 13 17 1016.1 1015.6 0.0
23/11:30am 33.7 28.4 6.9 19 14.8 WNW 24 32 13 17 1016.3 1015.8 0.0
23/11:00am 32.9 27.4 7.7 21 14.0 NW 26 35 14 19 1016.7 1016.1 0.0
23/10:30am 31.1 26.1 8.2 24 12.7 NW 24 32 13 17 1016.8 1016.2 0.0
23/10:00am 30.4 25.0 8.2 25 12.3 NW 26 33 14 18 1016.7 1016.1 0.0
23/09:30am 29.0 23.6 8.1 27 11.5 NW 26 32 14 17 1016.9 1016.3 0.0
23/09:00am 27.6 22.7 8.5 30 10.5 NW 24 32 13 17 1016.9 1016.3 0.0
23/08:30am 26.3 21.4 8.3 32 9.8 NW 24 28 13 15 1016.8 1016.2 0.0
23/08:00am 24.8 20.6 8.3 35 8.9 NNW 20 24 11 13 1016.6 1016.0 0.0
23/07:30am 24.4 18.6 8.0 35 8.8 NNW 28 30 15 16 1016.1 1015.6 0.0
23/07:00am 23.7 20.3 7.8 36 8.4 NNW 15 20 8 11 1016.2 1015.7 0.0
23/06:30am 23.6 19.8 7.7 36 8.4 NNW 17 20 9 11 1016.0 1015.5 0.0
23/06:00am 23.6 19.5 7.7 36 8.4 N 19 22 10 12 1015.6 1015.1 0.0
23/05:30am 23.5 20.0 7.2 35 8.5 NNW 15 19 8 10 1015.6 1015.1 0.0
23/05:00am 23.9 20.4 7.1 34 8.8 NNW 15 20 8 11 1015.5 1015.0 0.0
23/04:30am 24.1 20.2 7.3 34 8.9 NNW 17 19 9 10 1015.4 1014.9 0.0
23/04:00am 24.2 19.9 6.9 33 9.0 N 19 26 10 14 1015.2 1014.7 0.0
23/03:30am 24.3 20.3 6.6 32 9.2 N 17 19 9 10 1015.5 1015.0 0.0
23/03:00am 25.2 20.9 6.9 31 9.6 NNW 19 22 10 12 1016.0 1015.5 0.0
23/02:30am 25.2 20.3 6.9 31 9.6 N 22 28 12 15 1016.0 1015.5 0.0
23/02:00am 24.8 20.9 7.0 32 9.4 N 17 24 9 13 1016.2 1015.7 0.0
23/01:30am 24.9 20.5 6.6 31 9.6 N 19 20 10 11 1016.7 1016.1 0.0
23/01:00am 25.1 21.1 6.8 31 9.6 N 17 20 9 11 1016.9 1016.3 0.0
23/12:30am 25.4 21.8 6.6 30 9.9 N 15 19 8 10 1017.0 1016.4 0.0
23/12:00am 26.1 22.1 6.7 29 10.2 N 17 22 9 12 1017.0 1016.4 0.0
 
Date/Time
EDT
Temp
°C
App
Temp
°C
Dew
Point
Rel
Hum
%
Delta-T
°C
Wind Press
QNH
hPa
Press
MSL
hPa
Rain
since 9 am
mm
Dir
 
Spd
km/h
Gust
km/h
Spd
kts
Gust
kts
22/11:30pm 26.6 22.1 6.1 27 10.7 N 19 26 10 14 1017.2 1016.6 0.0
22/11:00pm 27.4 23.1 5.1 24 11.5 N 17 20 9 11 1017.1 1016.5 0.0
22/10:30pm 26.3 23.8 4.7 25 11.0 E 7 11 4 6 1016.9 1016.3 0.0
22/10:00pm 28.6 25.1 5.5 23 12.1 E 13 15 7 8 1017.1 1016.5 0.0
22/09:30pm 30.0 26.7 4.6 20 13.2 ESE 11 15 6 8 1017.1 1016.5 0.0
22/09:00pm 31.1 26.9 4.0 18 14.0 ESE 15 22 8 12 1017.0 1016.4 0.0
22/08:30pm 31.2 27.5 2.4 16 14.5 W 11 13 6 7 1016.3 1015.8 0.0
22/08:00pm 32.0 29.0 2.1 15 15.1 WNW 7 9 4 5 1016.0 1015.5 0.0
22/07:30pm 32.9 31.2 1.9 14 15.7 CALM 0 7 0 4 1015.7 1015.2 0.0
22/07:00pm 33.6 29.4 1.4 13 16.2 SW 13 22 7 12 1015.6 1015.1 0.0
22/06:59pm 33.7 29.1 1.5 13 16.3 SW 15 22 8 12 1015.7 1015.2 0.0
22/06:46pm 33.2 22.8 2.1 14 15.8 WNW 46 67 25 36 1015.0 1014.5 0.0
22/06:42pm 33.3 22.9 2.2 14 15.9 WNW 46 56 25 30 1015.3 1014.8 0.0
22/06:30pm 33.0 23.9 3.9 16 15.2 W 41 54 22 29 1015.2 1014.7 0.0
22/06:06pm 32.2 24.6 5.7 19 14.2 WSW 35 54 19 29 1015.8 1015.3 0.0
22/06:00pm 33.0 25.2 4.7 17 15.0 W 35 43 19 23 1015.9 1015.4 0.0
22/05:57pm 33.5 25.2 4.2 16 15.5 W 37 43 20 23 1015.9 1015.4 0.0
22/05:30pm 35.7 31.2 1.9 12 17.4 NW 15 35 8 19 1015.0 1014.5 0.0
22/05:00pm 35.9 30.6 -0.5 10 18.0 NW 17 24 9 13 1014.7 1014.2 0.0
22/04:30pm 36.8 31.2 0.2 10 18.5 WNW 19 24 10 13 1014.7 1014.2 0.0
22/04:00pm 36.3 32.6 -0.2 10 18.2 WNW 9 13 5 7 1015.0 1014.5 0.0
22/03:30pm 35.8 31.8 0.8 11 17.7 N 11 24 6 13 1015.4 1014.9 0.0
22/03:00pm 36.4 31.4 1.2 11 18.0 N 17 30 9 16 1015.9 1015.4 0.0
22/02:30pm 37.2 30.9 1.8 11 18.4 NW 24 33 13 18 1016.3 1015.8 0.0
22/02:00pm 36.0 30.9 3.3 13 17.2 N 19 33 10 18 1017.0 1016.4 0.0
22/01:30pm 34.8 29.6 3.4 14 16.5 N 20 30 11 16 1017.6 1017.0 0.0
22/01:00pm 33.7 28.9 4.4 16 15.5 N 19 26 10 14 1018.2 1017.6 0.0
22/12:30pm 32.8 28.0 4.6 17 14.9 NNE 19 26 10 14 1018.4 1017.8 0.0
22/12:00pm 33.2 28.4 5.7 18 14.8 ENE 20 28 11 15 1018.5 1017.9 0.0
22/11:30am 32.7 27.3 4.5 17 14.9 E 22 30 12 16 1018.9 1018.3 0.0
22/11:00am 30.1 24.0 4.7 20 13.2 E 26 33 14 18 1019.3 1018.8 0.0
22/10:30am 29.1 22.6 4.6 21 12.7 E 28 33 15 18 1019.3 1018.8 0.0
22/10:00am 28.3 23.3 4.6 22 12.2 E 20 26 11 14 1019.4 1018.9 0.0
22/09:30am 28.1 23.1 3.7 21 12.4 SE 19 24 10 13 1019.7 1019.2 0.0
22/09:00am 28.6 23.6 3.5 20 12.7 ESE 19 20 10 11 1018.9 1018.3 0.0
22/08:30am 27.3 22.3 3.7 22 11.9 E 19 24 10 13 1018.4 1017.8 0.0
22/08:00am 26.8 22.3 4.0 23 11.5 NNE 17 20 9 11 1017.9 1017.3 0.0
22/07:30am 25.0 20.9 4.2 26 10.4 NNW 15 19 8 10 1018.1 1017.5 0.0
22/07:00am 23.8 19.6 3.7 27 9.9 WNW 15 17 8 9 1018.0 1017.4 0.0
22/06:30am 23.4 18.2 3.4 27 9.8 WNW 20 24 11 13 1017.7 1017.1 0.0
22/06:00am 27.8 22.7 2.8 20 12.4 N 19 20 10 11 1016.9 1016.3 0.0
22/05:30am 25.8 22.2 3.1 23 11.2 N 11 13 6 7 1016.7 1016.1 0.0
22/05:00am 26.3 22.4 3.5 23 11.4 N 13 15 7 8 1016.5 1015.9 0.0
22/04:30am 25.5 21.1 2.9 23 11.1 NNE 15 17 8 9 1016.5 1015.9 0.0
22/04:00am 26.7 22.0 3.2 22 11.7 NNE 17 20 9 11 1016.5 1015.9 0.0
22/03:30am 27.2 22.6 3.7 22 11.8 NNE 17 20 9 11 1016.7 1016.1 0.0
22/03:00am 27.6 22.9 3.3 21 12.2 NNE 17 20 9 11 1016.9 1016.3 0.0
22/02:30am 28.7 23.6 2.8 19 13.0 NNE 19 24 10 13 1017.3 1016.7 0.0
22/02:00am 28.9 23.8 3.0 19 13.0 NNE 19 22 10 12 1017.6 1017.0 0.0
22/01:30am 29.3 23.9 2.5 18 13.4 NNE 20 26 11 14 1017.9 1017.3 0.0
22/01:00am 27.8 23.4 2.8 20 12.4 N 15 17 8 9 1018.4 1017.8 0.0
22/12:30am 27.6 23.4 1.9 19 12.6 NNE 13 17 7 9 1018.8 1018.2 0.0
22/12:00am 28.8 23.9 2.1 18 13.2 NNE 17 17 9 9 1019.1 1018.6 0.0
 
Date/Time
EDT
Temp
°C
App
Temp
°C
Dew
Point
Rel
Hum
%
Delta-T
°C
Wind Press
QNH
hPa
Press
MSL
hPa
Rain
since 9 am
mm
Dir
 
Spd
km/h
Gust
km/h
Spd
kts
Gust
kts
21/11:30pm 28.8 24.3 2.1 18 13.2 NNE 15 17 8 9 1019.3 1018.8 0.0
21/11:00pm 30.5 25.3 2.7 17 14.0 NE 19 22 10 12 1019.3 1018.8 0.0
21/10:30pm 31.5 26.3 3.5 17 14.4 NNE 20 30 11 16 1019.4 1018.9 0.0
21/10:00pm 30.2 26.3 3.3 18 13.7 ENE 13 19 7 10 1019.3 1018.8 0.0
21/09:30pm 31.1 27.2 3.2 17 14.3 NE 13 17 7 9 1019.0 1018.5 0.0
21/09:00pm 31.1 26.5 1.4 15 14.7 ENE 15 20 8 11 1018.8 1018.2 0.0
21/08:30pm 32.0 28.0 0.2 13 15.6 E 11 13 6 7 1018.4 1017.8 0.0
21/08:00pm 33.0 28.9 -0.2 12 16.2 E 11 13 6 7 1018.2 1017.6 0.0
21/07:30pm 34.9 31.2 0.1 11 17.3 E 9 13 5 7 1018.0 1017.4 0.0
21/07:00pm 36.0 32.8 -0.4 10 18.1 NW 6 11 3 6 1017.7 1017.1 0.0
21/06:30pm 36.9 34.0 -1.1 9 18.8 N 4 11 2 6 1017.6 1017.0 0.0
21/06:00pm 36.6 32.7 -1.4 9 18.6 NW 9 20 5 11 1017.6 1017.0 0.0

Other Formats:

Comma delimited format used in spreadsheet applications
http://www.bom.gov.au/fwo/IDN60801/IDN60801.95699.axf

JavaScript Object Notation format (JSON) in row-major order
http://www.bom.gov.au/fwo/IDN60801/IDN60801.95699.json